Snav Lazio — IBUH — position and weather

sailwx.info

Track history (hours):
 
Tides and Currents Weather Stations Pressure Air Temp Water Temp Dewpoint Dewpoint Depression Visibility Wind Speed Wind Dir Waves Ship Positions

Snav Lazio

Last reported at 2016-Aug-31 22:05 UTC. Time now 2016-Sep-01 05:41 UTC.
Position N 39°02' E 013°41'.

Length 162 m; draft 6 m.

Type: Passenger vessel. MMSI: 247163100.

Date/timePositionNaut miles runAvg speedWind from/ knotsBaromVisibWave heightAir tempDewpointWater temp
2016-Aug-31 22:05N 39°02' E 013°41'917.3
2016-Aug-31 21:33N 38°53' E 013°38'1717.4
2016-Aug-31 20:33N 38°36' E 013°33'1717.3
2016-Aug-31 19:33N 38°19' E 013°29'1212.2
2016-Aug-31 18:33N 38°08' E 013°22'0 0.0
2016-Aug-31 17:33N 38°08' E 013°22'0 0.0
2016-Aug-31 16:33N 38°08' E 013°22'0 0.0
2016-Aug-31 15:33N 38°08' E 013°22'0 0.0
2016-Aug-31 14:33N 38°08' E 013°22'0 0.0
2016-Aug-31 13:33N 38°08' E 013°22'0 0.0
2016-Aug-31 12:33N 38°08' E 013°22'0 0.0
2016-Aug-31 11:33N 38°08' E 013°22'0 0.0
2016-Aug-31 10:33N 38°08' E 013°22'0 0.0
2016-Aug-31 09:33N 38°08' E 013°22'0 0.0
2016-Aug-31 08:33N 38°08' E 013°22'0 0.0
2016-Aug-31 07:33N 38°08' E 013°22'0 0.0
2016-Aug-31 06:33N 38°08' E 013°22'0 0.0
2016-Aug-31 05:33N 38°08' E 013°22'1 0.6
2016-Aug-31 04:33N 38°08' E 013°22'1414.2
2016-Aug-31 03:33N 38°21' E 013°28'1716.7
2016-Aug-31 02:33N 38°37' E 013°33'1716.6
2016-Aug-31 01:34N 38°54' E 013°38'1916.7
2016-Aug-31 00:25N 39°12' E 013°43'1416.8
2016-Aug-30 23:33N 39°26' E 013°49'1716.7
2016-Aug-30 22:33N 39°42' E 013°52'1817.0
2016-Aug-30 21:29N 40°00' E 013°58'1617.0
2016-Aug-30 20:33N 40°15' E 014°02'1717.1
2016-Aug-30 19:33N 40°32' E 014°07'1717.0
2016-Aug-30 18:33N 40°48' E 014°16'3 2.8
2016-Aug-30 17:33N 40°50' E 014°16'0 0.0
2016-Aug-30 16:33N 40°50' E 014°16'0 0.0
2016-Aug-30 15:33N 40°50' E 014°16'0 0.0
2016-Aug-30 14:29N 40°50' E 014°16'0 0.0
2016-Aug-30 13:34N 40°50' E 014°16'0 0.0
2016-Aug-30 12:33N 40°50' E 014°16'0 0.0
2016-Aug-30 11:33N 40°50' E 014°16'0 0.0
2016-Aug-30 10:33N 40°50' E 014°16'0 0.0
2016-Aug-30 09:29N 40°50' E 014°16'2 0.4
2016-Aug-30 04:33N 40°48' E 014°17'1413.8
2016-Aug-30 03:34N 40°36' E 014°09'3417.1
2016-Aug-30 01:34N 40°03' E 013°59'1716.8
2016-Aug-30 00:31N 39°46' E 013°53'1617.1
2016-Aug-29 23:34N 39°30' E 013°49'4117.1
2016-Aug-29 21:11N 38°50' E 013°37'1317.4
2016-Aug-29 20:26N 38°37' E 013°33'1517.3
2016-Aug-29 19:33N 38°22' E 013°29'1616.0
2016-Aug-29 18:33N 38°07' E 013°23'1 1.4
2016-Aug-29 17:33N 38°08' E 013°22'0 0.0
2016-Aug-29 16:33N 38°08' E 013°22'0 0.0
2016-Aug-29 15:33N 38°08' E 013°22'0 0.0
2016-Aug-29 14:33N 38°08' E 013°22'0 0.0
2016-Aug-29 13:33N 38°08' E 013°22'0 0.0
2016-Aug-29 12:33N 38°08' E 013°22'0 0.0
2016-Aug-29 11:33N 38°08' E 013°22'0 0.0
2016-Aug-29 10:33N 38°08' E 013°22'0 0.0
2016-Aug-29 09:33N 38°08' E 013°22'2 1.9
2016-Aug-29 08:34N 38°09' E 013°24'1716.9
2016-Aug-29 07:33N 38°25' E 013°29'1716.9
2016-Aug-29 06:33N 38°42' E 013°34'1717.0
2016-Aug-29 05:33N 38°58' E 013°39'1817.3
2016-Aug-29 04:33N 39°15' E 013°44'1717.5
2016-Aug-29 03:33N 39°32' E 013°49'4317.3
2016-Aug-29 01:06N 40°13' E 014°02'1017.5
2016-Aug-29 00:34N 40°23' E 014°05'1717.4
2016-Aug-28 23:33N 40°39' E 014°11'3 1.0
2016-Aug-28 20:03N 40°42' E 014°13'6316.8
2016-Aug-28 16:19N 39°41' E 013°52'1716.7
2016-Aug-28 15:19N 39°25' E 013°48'3117.0
2016-Aug-28 13:28N 38°55' E 013°39'1617.1
2016-Aug-28 12:33N 38°39' E 013°34'1717.2
2016-Aug-28 11:33N 38°23' E 013°29'1616.2
2016-Aug-28 10:33N 38°07' E 013°24'1 1.4
2016-Aug-28 09:33N 38°08' E 013°22'0 0.0
2016-Aug-28 08:33N 38°08' E 013°22'3 2.6
2016-Aug-28 07:34N 38°09' E 013°25'1716.9
2016-Aug-28 06:34N 38°26' E 013°29'1716.8
2016-Aug-28 05:34N 38°42' E 013°34'1716.9
2016-Aug-28 04:33N 38°59' E 013°39'1717.0
2016-Aug-28 03:34N 39°15' E 013°44'1717.2
2016-Aug-28 02:33N 39°32' E 013°49'1716.8
2016-Aug-28 01:34N 39°48' E 013°53'1616.5
2016-Aug-28 00:33N 40°04' E 013°58'1716.9
2016-Aug-27 23:34N 40°21' E 014°04'31 7.0
2016-Aug-27 19:10N 40°50' E 014°17'1515.6
2016-Aug-27 18:11N 40°35' E 014°09'2716.5
2016-Aug-27 16:32N 40°09' E 014°01'1816.8
2016-Aug-27 15:27N 39°52' E 013°55'1516.6
2016-Aug-27 14:33N 39°37' E 013°51'5616.6
2016-Aug-27 11:11N 38°42' E 013°35'1116.9
2016-Aug-27 10:33N 38°32' E 013°32'1716.8
2016-Aug-27 09:33N 38°15' E 013°28'9 9.1
2016-Aug-27 08:33N 38°08' E 013°22'0 0.0
2016-Aug-27 07:33N 38°08' E 013°22'0 0.0
2016-Aug-27 06:33N 38°08' E 013°22'17 8.4
2016-Aug-27 04:33N 38°24' E 013°29'1716.5
2016-Aug-27 03:32N 38°40' E 013°33'1616.4
2016-Aug-27 02:34N 38°56' E 013°38'1716.7
2016-Aug-27 01:33N 39°12' E 013°43'1716.8
2016-Aug-27 00:34N 39°29' E 013°46'1716.9
2016-Aug-26 23:33N 39°45' E 013°52'1716.7
2016-Aug-26 22:34N 40°01' E 013°58'1717.1
2016-Aug-26 21:33N 40°18' E 014°03'1717.2
2016-Aug-26 20:34N 40°34' E 014°09'1716.6
2016-Aug-26 19:34N 40°50' E 014°17'1 1.1
2016-Aug-26 18:33N 40°50' E 014°16'0 0.0
2016-Aug-26 17:33N 40°50' E 014°16'1 1.2
2016-Aug-26 16:33N 40°50' E 014°17'1615.8
2016-Aug-26 15:33N 40°35' E 014°09'1816.3
2016-Aug-26 14:28N 40°18' E 014°04'1516.6
2016-Aug-26 13:33N 40°03' E 013°59'1716.7
2016-Aug-26 12:33N 39°47' E 013°54'1716.6
2016-Aug-26 11:33N 39°31' E 013°49'5116.7
2016-Aug-26 08:29N 38°41' E 013°35'1616.8
2016-Aug-26 07:33N 38°25' E 013°30'1717.1
2016-Aug-26 06:33N 38°09' E 013°26'3 1.7
2016-Aug-26 04:33N 38°08' E 013°22'0 0.0
2016-Aug-26 03:33N 38°08' E 013°22'1 0.7
2016-Aug-26 02:33N 38°07' E 013°23'1414.0
2016-Aug-26 01:33N 38°21' E 013°28'1615.9
2016-Aug-26 00:33N 38°36' E 013°32'1616.4
2016-Aug-25 23:33N 38°52' E 013°37'1716.8
2016-Aug-25 22:33N 39°09' E 013°41'1717.1
2016-Aug-25 21:33N 39°25' E 013°47'1717.3
2016-Aug-25 20:33N 39°42' E 013°52'1717.2
2016-Aug-25 19:33N 39°59' E 013°57'1717.3
2016-Aug-25 18:33N 40°16' E 014°02'1717.3
2016-Aug-25 17:33N 40°33' E 014°07'1717.1
2016-Aug-25 16:33N 40°48' E 014°16'2 0.7
2016-Aug-25 13:16N 40°50' E 014°16'139 8.7
2016-Aug-24 21:17N 38°35' E 013°33'1216.0
2016-Aug-24 20:34N 38°24' E 013°30'1616.5
2016-Aug-24 19:34N 38°08' E 013°25'2 2.1
2016-Aug-24 18:32N 38°08' E 013°22'0 0.0
2016-Aug-24 17:32N 38°08' E 013°22'0 0.0
2016-Aug-24 16:32N 38°08' E 013°22'0 0.0
2016-Aug-24 15:32N 38°08' E 013°22'0 0.0
2016-Aug-24 14:32N 38°08' E 013°22'0 0.0
2016-Aug-24 13:29N 38°08' E 013°22'0 0.0
2016-Aug-24 12:32N 38°08' E 013°22'0 0.0
2016-Aug-24 11:32N 38°08' E 013°22'0 0.0
2016-Aug-24 10:32N 38°08' E 013°22'0 0.0
2016-Aug-24 09:32N 38°08' E 013°22'0 0.0
2016-Aug-24 08:32N 38°08' E 013°22'0 0.0
2016-Aug-24 07:32N 38°08' E 013°22'0 0.0
2016-Aug-24 06:32N 38°08' E 013°22'2 1.0
2016-Aug-24 04:33N 38°09' E 013°24'1716.6
2016-Aug-24 03:33N 38°25' E 013°28'1716.5
2016-Aug-24 02:33N 38°41' E 013°33'10416.7
2016-Aug-23 20:18N 40°23' E 014°03'1317.0
2016-Aug-23 19:33N 40°35' E 014°07'1716.5
2016-Aug-23 18:33N 40°50' E 014°17'1 0.3
2016-Aug-23 15:18N 40°50' E 014°16'0 0.0
2016-Aug-23 14:24N 40°50' E 014°16'0 0.0
2016-Aug-23 12:17N 40°50' E 014°16'0 0.0
2016-Aug-23 11:29N 40°50' E 014°16'0 0.0
2016-Aug-23 10:34N 40°50' E 014°16'0 0.0
2016-Aug-23 09:33N 40°50' E 014°16'0 0.0
2016-Aug-23 08:32N 40°50' E 014°16'0 0.0
2016-Aug-23 07:29N 40°50' E 014°16'2 2.5
2016-Aug-23 06:34N 40°48' E 014°17'1615.6
2016-Aug-23 05:32N 40°34' E 014°08'12214.6
2016-Aug-22 21:14N 38°35' E 013°33'1015.3
2016-Aug-22 20:34N 38°25' E 013°30'1515.2
2016-Aug-22 19:34N 38°10' E 013°27'4 4.4
2016-Aug-22 18:33N 38°08' E 013°22'0 0.0
2016-Aug-22 17:33N 38°08' E 013°22'0 0.0
2016-Aug-22 16:33N 38°08' E 013°22'0 0.0
2016-Aug-22 15:33N 38°08' E 013°22'0 0.0
2016-Aug-22 14:33N 38°08' E 013°22'0 0.0
2016-Aug-22 13:34N 38°08' E 013°22'0 0.0
2016-Aug-22 12:33N 38°08' E 013°22'0 0.0
2016-Aug-22 11:33N 38°08' E 013°22'0 0.0
2016-Aug-22 10:33N 38°08' E 013°22'4 4.0
2016-Aug-22 09:33N 38°11' E 013°25'1615.7
2016-Aug-22 08:33N 38°27' E 013°29'1615.7
2016-Aug-22 07:33N 38°42' E 013°34'2315.3
2016-Aug-22 06:03N 39°04' E 013°41'815.7
2016-Aug-22 05:33N 39°12' E 013°43'1615.9
2016-Aug-22 04:33N 39°27' E 013°47'1616.1
2016-Aug-22 03:34N 39°43' E 013°52'1615.8
2016-Aug-22 02:33N 39°59' E 013°57'1717.0
2016-Aug-22 01:34N 40°15' E 014°02'1717.5
2016-Aug-22 00:34N 40°32' E 014°07'1817.5
2016-Aug-21 23:33N 40°48' E 014°16'2 2.3
2016-Aug-21 22:31N 40°50' E 014°16'  
Track history (hours):
 
Tides and Currents Weather Stations Pressure Air Temp Water Temp Dewpoint Dewpoint Depression Visibility Wind Speed Wind Dir Waves Ship Positions

Snav Lazio

Last reported at 2016-Aug-31 22:05 UTC. Time now 2016-Sep-01 05:41 UTC.
Position N 39°02' E 013°41'.

Length 162 m; draft 6 m.

Type: Passenger vessel. MMSI: 247163100.

Date/timePositionNaut miles runAvg speedWind from/ knotsBaromVisibWave heightAir tempDewpointWater temp
2016-Aug-31 22:05N 39°02' E 013°41'917.3
2016-Aug-31 21:33N 38°53' E 013°38'1717.4
2016-Aug-31 20:33N 38°36' E 013°33'1717.3
2016-Aug-31 19:33N 38°19' E 013°29'1212.2
2016-Aug-31 18:33N 38°08' E 013°22'0 0.0
2016-Aug-31 17:33N 38°08' E 013°22'0 0.0
2016-Aug-31 16:33N 38°08' E 013°22'0 0.0
2016-Aug-31 15:33N 38°08' E 013°22'0 0.0
2016-Aug-31 14:33N 38°08' E 013°22'0 0.0
2016-Aug-31 13:33N 38°08' E 013°22'0 0.0
2016-Aug-31 12:33N 38°08' E 013°22'0 0.0
2016-Aug-31 11:33N 38°08' E 013°22'0 0.0
2016-Aug-31 10:33N 38°08' E 013°22'0 0.0
2016-Aug-31 09:33N 38°08' E 013°22'0 0.0
2016-Aug-31 08:33N 38°08' E 013°22'0 0.0
2016-Aug-31 07:33N 38°08' E 013°22'0 0.0
2016-Aug-31 06:33N 38°08' E 013°22'0 0.0
2016-Aug-31 05:33N 38°08' E 013°22'1 0.6
2016-Aug-31 04:33N 38°08' E 013°22'1414.2
2016-Aug-31 03:33N 38°21' E 013°28'1716.7
2016-Aug-31 02:33N 38°37' E 013°33'1716.6
2016-Aug-31 01:34N 38°54' E 013°38'1916.7
2016-Aug-31 00:25N 39°12' E 013°43'1416.8
2016-Aug-30 23:33N 39°26' E 013°49'1716.7
2016-Aug-30 22:33N 39°42' E 013°52'1817.0
2016-Aug-30 21:29N 40°00' E 013°58'1617.0
2016-Aug-30 20:33N 40°15' E 014°02'1717.1
2016-Aug-30 19:33N 40°32' E 014°07'1717.0
2016-Aug-30 18:33N 40°48' E 014°16'3 2.8
2016-Aug-30 17:33N 40°50' E 014°16'0 0.0
2016-Aug-30 16:33N 40°50' E 014°16'0 0.0
2016-Aug-30 15:33N 40°50' E 014°16'0 0.0
2016-Aug-30 14:29N 40°50' E 014°16'0 0.0
2016-Aug-30 13:34N 40°50' E 014°16'0 0.0
2016-Aug-30 12:33N 40°50' E 014°16'0 0.0
2016-Aug-30 11:33N 40°50' E 014°16'0 0.0
2016-Aug-30 10:33N 40°50' E 014°16'0 0.0
2016-Aug-30 09:29N 40°50' E 014°16'2 0.4
2016-Aug-30 04:33N 40°48' E 014°17'1413.8
2016-Aug-30 03:34N 40°36' E 014°09'3417.1
2016-Aug-30 01:34N 40°03' E 013°59'1716.8
2016-Aug-30 00:31N 39°46' E 013°53'1617.1
2016-Aug-29 23:34N 39°30' E 013°49'4117.1
2016-Aug-29 21:11N 38°50' E 013°37'1317.4
2016-Aug-29 20:26N 38°37' E 013°33'1517.3
2016-Aug-29 19:33N 38°22' E 013°29'1616.0
2016-Aug-29 18:33N 38°07' E 013°23'1 1.4
2016-Aug-29 17:33N 38°08' E 013°22'0 0.0
2016-Aug-29 16:33N 38°08' E 013°22'0 0.0
2016-Aug-29 15:33N 38°08' E 013°22'0 0.0
2016-Aug-29 14:33N 38°08' E 013°22'0 0.0
2016-Aug-29 13:33N 38°08' E 013°22'0 0.0
2016-Aug-29 12:33N 38°08' E 013°22'0 0.0
2016-Aug-29 11:33N 38°08' E 013°22'0 0.0
2016-Aug-29 10:33N 38°08' E 013°22'0 0.0
2016-Aug-29 09:33N 38°08' E 013°22'2 1.9
2016-Aug-29 08:34N 38°09' E 013°24'1716.9
2016-Aug-29 07:33N 38°25' E 013°29'1716.9
2016-Aug-29 06:33N 38°42' E 013°34'1717.0
2016-Aug-29 05:33N 38°58' E 013°39'1817.3
2016-Aug-29 04:33N 39°15' E 013°44'1717.5
2016-Aug-29 03:33N 39°32' E 013°49'4317.3
2016-Aug-29 01:06N 40°13' E 014°02'1017.5
2016-Aug-29 00:34N 40°23' E 014°05'1717.4
2016-Aug-28 23:33N 40°39' E 014°11'3 1.0
2016-Aug-28 20:03N 40°42' E 014°13'6316.8
2016-Aug-28 16:19N 39°41' E 013°52'1716.7
2016-Aug-28 15:19N 39°25' E 013°48'3117.0
2016-Aug-28 13:28N 38°55' E 013°39'1617.1
2016-Aug-28 12:33N 38°39' E 013°34'1717.2
2016-Aug-28 11:33N 38°23' E 013°29'1616.2
2016-Aug-28 10:33N 38°07' E 013°24'1 1.4
2016-Aug-28 09:33N 38°08' E 013°22'0 0.0
2016-Aug-28 08:33N 38°08' E 013°22'3 2.6
2016-Aug-28 07:34N 38°09' E 013°25'1716.9
2016-Aug-28 06:34N 38°26' E 013°29'1716.8
2016-Aug-28 05:34N 38°42' E 013°34'1716.9
2016-Aug-28 04:33N 38°59' E 013°39'1717.0
2016-Aug-28 03:34N 39°15' E 013°44'1717.2
2016-Aug-28 02:33N 39°32' E 013°49'1716.8
2016-Aug-28 01:34N 39°48' E 013°53'1616.5
2016-Aug-28 00:33N 40°04' E 013°58'1716.9
2016-Aug-27 23:34N 40°21' E 014°04'31 7.0
2016-Aug-27 19:10N 40°50' E 014°17'1515.6
2016-Aug-27 18:11N 40°35' E 014°09'2716.5
2016-Aug-27 16:32N 40°09' E 014°01'1816.8
2016-Aug-27 15:27N 39°52' E 013°55'1516.6
2016-Aug-27 14:33N 39°37' E 013°51'5616.6
2016-Aug-27 11:11N 38°42' E 013°35'1116.9
2016-Aug-27 10:33N 38°32' E 013°32'1716.8
2016-Aug-27 09:33N 38°15' E 013°28'9 9.1
2016-Aug-27 08:33N 38°08' E 013°22'0 0.0
2016-Aug-27 07:33N 38°08' E 013°22'0 0.0
2016-Aug-27 06:33N 38°08' E 013°22'17 8.4
2016-Aug-27 04:33N 38°24' E 013°29'1716.5
2016-Aug-27 03:32N 38°40' E 013°33'1616.4
2016-Aug-27 02:34N 38°56' E 013°38'1716.7
2016-Aug-27 01:33N 39°12' E 013°43'1716.8
2016-Aug-27 00:34N 39°29' E 013°46'1716.9
2016-Aug-26 23:33N 39°45' E 013°52'1716.7
2016-Aug-26 22:34N 40°01' E 013°58'1717.1
2016-Aug-26 21:33N 40°18' E 014°03'1717.2
2016-Aug-26 20:34N 40°34' E 014°09'1716.6
2016-Aug-26 19:34N 40°50' E 014°17'1 1.1
2016-Aug-26 18:33N 40°50' E 014°16'0 0.0
2016-Aug-26 17:33N 40°50' E 014°16'1 1.2
2016-Aug-26 16:33N 40°50' E 014°17'1615.8
2016-Aug-26 15:33N 40°35' E 014°09'1816.3
2016-Aug-26 14:28N 40°18' E 014°04'1516.6
2016-Aug-26 13:33N 40°03' E 013°59'1716.7
2016-Aug-26 12:33N 39°47' E 013°54'1716.6
2016-Aug-26 11:33N 39°31' E 013°49'5116.7
2016-Aug-26 08:29N 38°41' E 013°35'1616.8
2016-Aug-26 07:33N 38°25' E 013°30'1717.1
2016-Aug-26 06:33N 38°09' E 013°26'3 1.7
2016-Aug-26 04:33N 38°08' E 013°22'0 0.0
2016-Aug-26 03:33N 38°08' E 013°22'1 0.7
2016-Aug-26 02:33N 38°07' E 013°23'1414.0
2016-Aug-26 01:33N 38°21' E 013°28'1615.9
2016-Aug-26 00:33N 38°36' E 013°32'1616.4
2016-Aug-25 23:33N 38°52' E 013°37'1716.8
2016-Aug-25 22:33N 39°09' E 013°41'1717.1
2016-Aug-25 21:33N 39°25' E 013°47'1717.3
2016-Aug-25 20:33N 39°42' E 013°52'1717.2
2016-Aug-25 19:33N 39°59' E 013°57'1717.3
2016-Aug-25 18:33N 40°16' E 014°02'1717.3
2016-Aug-25 17:33N 40°33' E 014°07'1717.1
2016-Aug-25 16:33N 40°48' E 014°16'2 0.7
2016-Aug-25 13:16N 40°50' E 014°16'139 8.7
2016-Aug-24 21:17N 38°35' E 013°33'1216.0
2016-Aug-24 20:34N 38°24' E 013°30'1616.5
2016-Aug-24 19:34N 38°08' E 013°25'2 2.1
2016-Aug-24 18:32N 38°08' E 013°22'0 0.0
2016-Aug-24 17:32N 38°08' E 013°22'0 0.0
2016-Aug-24 16:32N 38°08' E 013°22'0 0.0
2016-Aug-24 15:32N 38°08' E 013°22'0 0.0
2016-Aug-24 14:32N 38°08' E 013°22'0 0.0
2016-Aug-24 13:29N 38°08' E 013°22'0 0.0
2016-Aug-24 12:32N 38°08' E 013°22'0 0.0
2016-Aug-24 11:32N 38°08' E 013°22'0 0.0
2016-Aug-24 10:32N 38°08' E 013°22'0 0.0
2016-Aug-24 09:32N 38°08' E 013°22'0 0.0
2016-Aug-24 08:32N 38°08' E 013°22'0 0.0
2016-Aug-24 07:32N 38°08' E 013°22'0 0.0
2016-Aug-24 06:32N 38°08' E 013°22'2 1.0
2016-Aug-24 04:33N 38°09' E 013°24'1716.6
2016-Aug-24 03:33N 38°25' E 013°28'1716.5
2016-Aug-24 02:33N 38°41' E 013°33'10416.7
2016-Aug-23 20:18N 40°23' E 014°03'1317.0
2016-Aug-23 19:33N 40°35' E 014°07'1716.5
2016-Aug-23 18:33N 40°50' E 014°17'1 0.3
2016-Aug-23 15:18N 40°50' E 014°16'0 0.0
2016-Aug-23 14:24N 40°50' E 014°16'0 0.0
2016-Aug-23 12:17N 40°50' E 014°16'0 0.0
2016-Aug-23 11:29N 40°50' E 014°16'0 0.0
2016-Aug-23 10:34N 40°50' E 014°16'0 0.0
2016-Aug-23 09:33N 40°50' E 014°16'0 0.0
2016-Aug-23 08:32N 40°50' E 014°16'0 0.0
2016-Aug-23 07:29N 40°50' E 014°16'2 2.5
2016-Aug-23 06:34N 40°48' E 014°17'1615.6
2016-Aug-23 05:32N 40°34' E 014°08'12214.6
2016-Aug-22 21:14N 38°35' E 013°33'1015.3
2016-Aug-22 20:34N 38°25' E 013°30'1515.2
2016-Aug-22 19:34N 38°10' E 013°27'4 4.4
2016-Aug-22 18:33N 38°08' E 013°22'0 0.0
2016-Aug-22 17:33N 38°08' E 013°22'0 0.0
2016-Aug-22 16:33N 38°08' E 013°22'0 0.0
2016-Aug-22 15:33N 38°08' E 013°22'0 0.0
2016-Aug-22 14:33N 38°08' E 013°22'0 0.0
2016-Aug-22 13:34N 38°08' E 013°22'0 0.0
2016-Aug-22 12:33N 38°08' E 013°22'0 0.0
2016-Aug-22 11:33N 38°08' E 013°22'0 0.0
2016-Aug-22 10:33N 38°08' E 013°22'4 4.0
2016-Aug-22 09:33N 38°11' E 013°25'1615.7
2016-Aug-22 08:33N 38°27' E 013°29'1615.7
2016-Aug-22 07:33N 38°42' E 013°34'2315.3
2016-Aug-22 06:03N 39°04' E 013°41'815.7
2016-Aug-22 05:33N 39°12' E 013°43'1615.9
2016-Aug-22 04:33N 39°27' E 013°47'1616.1
2016-Aug-22 03:34N 39°43' E 013°52'1615.8
2016-Aug-22 02:33N 39°59' E 013°57'1717.0
2016-Aug-22 01:34N 40°15' E 014°02'1717.5
2016-Aug-22 00:34N 40°32' E 014°07'1817.5
2016-Aug-21 23:33N 40°48' E 014°16'2 2.3
2016-Aug-21 22:31N 40°50' E 014°16'  

Dump ship's entire track history